Tully, NY

10:23 PM EST on March 03, 2015 (GMT -0500)
Syracuse Hancock International | Change Station
CLOSE
Current Station
Airport
Location: Syracuse,
Elevation: 420 ft
Nearby Weather Stations
Active Advisory: Winter Weather Advisory Active Notice: Public Information Statement

Elev 420 ft 43.11 °N, 76.10 °W | Updated 29 minutes ago

Overcast
Overcast
28 °F
Feels Like 18 °F
N
13
Wind Variable Wind from South
Gusts 20 mph

Today
High -- | Low -- °F
--% Chance of Precip.
Yesterday
High -- | Low -- °F
Precip. -- in
6:37 AM 5:56 PM
Waxing Gibbous, 98% visible
Pressure 29.63 in
Visibility 10.0 miles
Clouds Overcast 2600 ft
Windchill 18 °F
Dew Point 25 °F
Humidity 88%
Rainfall 0.33 in
Snow Depth Not available.
UV 0 out of 12
Pollen .40 out of 12
Air Quality Not available.
Flu Activity Not available.
METAR KSYR 040254Z 19011G17KT 10SM OVC026 M02/M04 A2962 RMK AO2 SNE03 SLP032 P0000 60001 T10221039 58028

More Conditions Fewer Conditions

Pressure 29.63 in
Visibility 10.0 miles
Clouds Overcast 2600 ft
Windchill 18 °F
Dew Point 25 °F
Humidity 88%
Rainfall 0.33 in
Snow Depth Not available.
UV 0 out of 12
Pollen .40 out of 12
Air Quality Not available.
Flu Activity Not available.
METAR KSYR 040254Z 19011G17KT 10SM OVC026 M02/M04 A2962 RMK AO2 SNE03 SLP032 P0000 60001 T10221039 58028

More Conditions Fewer Conditions

10-Day Weather Forecast

Almanac

Astronomy

Mar. 03, 2015 Rise Set
Actual Time
Civil Twilight
Nautical Twilight
Astronomical Twilight
Moon
Length of Visible Light
Length of Day
Tomorrow will be .
, % of the Moon is Illuminated

Today's Extremes

State Highs State Lows

Community

WunderPhotos

Upload Photos

1,802,374 photos uploaded!

WunderBlogs® & News

Nearby

Air Quality

  Air Quality AQ Index Pollutant
Not available.

Snow Depth

Station Depth Elevation

Earthquake Activity

City Distance Mag. Time & Date
Minimum magnitude displayed is 2.5.

Coastal Water Temperatures

Place Temperature

Nearby Weather Stations

Winter Weather Advisory
Statement as of 9:55 PM EST on March 03, 2015

... Winter Weather Advisory remains in effect until 7 am EST
Wednesday...

* locations... most of central New York to the western Catskills.

* Hazards... freezing drizzle.

* Accumulations... an additional thin coating of ice.

* Timing... patchy freezing drizzle will continue through tonight.

* Temperatures... upper 20s... gradually rising into the lower 30s by
Wednesday morning.

* Winds... south 10 to 20 mph with gusts up to 35 mph.

* Impacts... untreated roads will be hazardous.

Precautionary/preparedness actions...

A Winter Weather Advisory means that periods freezing drizzle
will cause travel difficulties. Be prepared for slippery roads and
limited visibilities... and use caution while driving.

Please report snowfall and/or ice amounts to the National Weather
Service by calling toll free at 1-888-603-1402... or by email at
bgm.Stormreport@noaa.Gov.